Terminal Aerodrome Forecast
Issued by NWS Cleveland, OH

Home | Current Version | Previous Version | Text Only | Print | Product List | Glossary On
Versions: 1 2 3 4 5 6 7 8 9 10 11 12 13 14 15 16 17 18 19 20 21 22 23
000
FTUS41 KCLE 231949 AAA
TAFMFD
TAF AMD
KMFD 231949Z 2320/2418 24015G25KT P6SM VCSH OVC008
      TEMPO 2320/2324 SCT008 OVC010
     FM240000 27012KT P6SM OVC010
     FM240300 28005KT 5SM BR OVC007
     FM240800 35005KT 2SM BR OVC005
     FM241400 07005KT 2SM -RA BR OVC005=

USA.gov is the U.S. government's official web portal to all federal, state and local government web resources and services.